EW3937 Weather Reports


Display with metric or nautical units.
time (UTC)temp
F
wind
direction
speed
MPH
gust
MPH
rain 1hr
in
rain 24hr
in
rain mn
in
humidity
%
barometer
mb
20210305002935 50 96 3.0 6.0 0.00 0.00 0.00 57 1017.6
20210305001749 51 75 1.0 3.0 0.00 0.00 0.00 55 1017.6
20210304234904 55 72 2.0 5.0 0.00 0.00 0.00 49 1017.7
20210304233757 55 65 1.0 7.0 0.00 0.00 0.00 46 1017.7
20210304233122 55 77 2.0 5.0 0.00 0.00 0.00 48 1017.7
20210304231744 56 75 3.0 9.0 0.00 0.00 0.00 46 1017.6
20210304230743 56 99 1.0 4.0 0.00 0.00 0.00 46 1017.7
20210304230049 57 79 3.0 7.0 0.00 0.00 0.00 44 1017.6
20210304224803 57 60 1.0 3.0 0.00 0.00 0.00 44 1017.6
20210304223746 56 70 1.0 5.0 0.00 0.00 0.00 45 1017.4
20210304222945 56 77 1.0 4.0 0.00 0.00 0.00 46 1017.3
20210304221808 57 72 1.0 6.0 0.00 0.00 0.00 46 1017.3
20210304220749 56 315 1.0 3.0 0.00 0.00 0.00 48 1017.2
20210304220118 56 29 1.0 2.0 0.00 0.00 0.00 48 1017.2
20210304214957 54 341 1.0 5.0 0.00 0.00 0.00 52 1017.2
20210304212923 53 27 1.0 6.0 0.00 0.00 0.00 54 1017.1
20210304211813 53 78 1.0 4.0 0.00 0.00 0.00 52 1017.1
20210304205932 53 72 3.0 8.0 0.00 0.00 0.00 52 1016.9
20210304204841 53 83 3.0 7.0 0.00 0.00 0.00 52 1016.8
20210304203229 52 101 2.0 5.0 0.00 0.00 0.00 52 1016.8
20210304201842 51 77 3.0 7.0 0.00 0.00 0.00 54 1016.7
20210304193109 47 80 4.0 11.0 0.00 0.00 0.00 57 1016.2
20210304181734 44 76 4.0 11.0 0.00 0.00 0.00 61 1015.8
20210304174819 42 75 4.0 12.0 0.00 0.00 0.00 65 1015.5
20210304170853 41 72 5.0 11.0 0.00 0.00 0.00 66 1015.0
20210304170306 41 81 5.0 11.0 0.00 0.00 0.00 66 1014.9
20210304164914 41 62 5.0 11.0 0.00 0.00 0.00 65 1014.9
20210304163350 38 88 2.0 9.0 0.00 0.00 0.00 70 1014.9
20210304153740 35 123 4.0 8.0 0.00 0.00 0.00 73 1014.4
20210304153218 34 111 4.0 9.0 0.00 0.00 0.00 74 1014.1
20210304150829 33 103 3.0 8.0 0.00 0.00 0.00 76 1013.7
20210304145033 32 92 3.0 8.0 0.00 0.00 0.00 77 1013.6
20210304143721 32 104 1.0 7.0 0.00 0.00 0.00 77 1013.4
20210304142823 32 108 3.0 8.0 0.00 0.00 0.00 76 1013.3
20210304141754 33 70 2.0 9.0 0.00 0.00 0.00 76 1012.9
20210304135818 33 97 4.0 11.0 0.00 0.00 0.00 76 1012.7
20210304134742 33 98 7.0 12.0 0.00 0.00 0.00 76 1012.6
20210304133750 33 101 7.0 12.0 0.00 0.00 0.00 75 1012.6
20210304130756 33 93 3.0 12.0 0.00 0.00 0.00 76 1012.3
20210304125754 33 103 3.0 9.0 0.00 0.00 0.00 76 1012.2
20210304124812 33 74 1.0 7.0 0.00 0.00 0.00 75 1012.2
20210304123753 33 121 3.0 9.0 0.00 0.00 0.00 76 1012.2
20210304121809 33 118 2.0 6.0 0.00 0.00 0.00 75 1011.8
20210304120744 34 105 2.0 11.0 0.00 0.00 0.00 75 1011.7
20210304114734 34 101 4.0 9.0 0.00 0.00 0.00 75 1011.6
20210304113741 34 98 5.0 10.0 0.00 0.00 0.00 75 1011.6
20210304113020 34 100 3.0 10.0 0.00 0.00 0.00 74 1011.4
20210304110207 34 52 2.0 8.0 0.00 0.00 0.00 74 1011.1
20210304102833 33 120 2.0 5.0 0.00 0.00 0.00 77 1010.9
20210304100741 33 97 1.0 4.0 0.00 0.00 0.00 75 1010.9
20210304094809 35 104 1.0 4.0 0.00 0.00 0.00 72 1010.7
20210304093805 36 117 3.0 7.0 0.00 0.00 0.00 71 1010.6
20210304093040 36 118 3.0 7.0 0.00 0.00 0.00 70 1010.6
20210304090800 37 113 2.0 7.0 0.00 0.00 0.00 70 1010.5
20210304085847 36 116 1.0 6.0 0.00 0.00 0.00 71 1010.4
20210304084822 36 115 2.0 4.0 0.00 0.00 0.00 73 1010.4
20210304082851 35 107 3.0 7.0 0.00 0.00 0.00 74 1010.1
20210304081737 35 111 3.0 6.0 0.00 0.00 0.00 74 1010.0
20210304080745 36 87 0.0 6.0 0.00 0.00 0.00 73 1010.0
20210304073723 35 114 1.0 4.0 0.00 0.00 0.00 77 1010.0
20210304072738 34 128 1.0 4.0 0.00 0.00 0.00 77 1009.9
20210304063723 33 152 1.0 2.0 0.00 0.00 0.00 77 1009.8
20210304062128 33 107 0.0 3.0 0.00 0.00 0.00 79 1009.5
20210304060729 32 136 0.0 2.0 0.00 0.00 0.00 79 1009.4
20210304055821 32 145 0.0 2.0 0.00 0.00 0.00 79 1009.4
20210304054726 32 145 0.0 1.0 0.00 0.00 0.00 79 1009.4
20210304052813 32 139 0.0 2.0 0.00 0.00 0.00 78 1009.4
20210304050753 34 138 1.0 2.0 0.00 0.00 0.00 76 1009.1
20210304044749 34 135 1.0 2.0 0.00 0.00 0.00 78 1009.0
20210304043732 35 115 0.0 3.0 0.00 0.00 0.00 77 1008.9
20210304042850 36 111 2.0 3.0 0.00 0.00 0.00 77 1008.8
20210304041814 35 104 2.0 4.0 0.00 0.00 0.00 78 1008.9
20210304040758 35 103 1.0 2.0 0.00 0.00 0.00 78 1008.8
20210304031937 36 118 1.0 2.0 0.00 0.00 0.00 77 1008.8
20210304030742 36 117 0.0 2.0 0.00 0.00 0.00 76 1008.7
20210304024809 37 110 0.0 2.0 0.00 0.00 0.00 73 1008.8
20210304022827 39 153 0.0 2.0 0.00 0.00 0.00 73 1008.5
20210304020719 42 134 1.0 2.0 0.00 0.00 0.00 65 1008.4
20210304010729 47 109 3.0 7.0 0.00 0.00 0.00 61 1008.3